createdAt,value
2018-04-30T00:01:15.397Z,18.13
2018-04-30T00:03:43.771Z,21.03
2018-04-30T00:06:12.298Z,18.97
2018-04-30T00:08:40.697Z,16.10
2018-04-30T00:11:09.080Z,24.17
2018-04-30T00:13:37.491Z,16.00
2018-04-30T00:16:05.976Z,22.53
2018-04-30T00:18:34.377Z,26.20
2018-04-30T00:21:02.756Z,20.80
2018-04-30T00:23:31.135Z,17.33
2018-04-30T00:25:59.506Z,23.00
2018-04-30T00:28:27.945Z,20.17
2018-04-30T00:30:56.312Z,25.83
2018-04-30T00:33:24.733Z,26.90
2018-04-30T00:35:53.126Z,24.10
2018-04-30T00:38:21.524Z,20.20
2018-04-30T00:40:49.967Z,21.17
2018-04-30T00:43:18.389Z,19.57
2018-04-30T00:45:46.787Z,19.80
2018-04-30T00:48:15.277Z,21.53
2018-04-30T00:50:43.675Z,18.50
2018-04-30T00:53:12.037Z,24.83
2018-04-30T00:55:40.422Z,19.80
2018-04-30T00:58:08.804Z,19.03
2018-04-30T01:00:37.208Z,21.30
2018-04-30T01:03:05.680Z,17.30
2018-04-30T01:05:34.045Z,23.47
2018-04-30T01:08:02.501Z,24.20
2018-04-30T01:10:30.873Z,19.47
2018-04-30T01:12:59.253Z,20.40
2018-04-30T01:15:27.649Z,22.50
2018-04-30T01:17:56.073Z,24.50
2018-04-30T01:20:24.474Z,25.33
2018-04-30T01:22:52.859Z,20.40
2018-04-30T01:25:21.301Z,22.90
2018-04-30T01:27:49.696Z,20.40
2018-04-30T01:30:18.130Z,21.33
2018-04-30T01:32:46.514Z,17.73
2018-04-30T01:35:14.993Z,21.30
2018-04-30T01:37:43.472Z,25.00
2018-04-30T01:40:11.834Z,22.53
2018-04-30T01:42:40.240Z,25.03
2018-04-30T01:45:09.680Z,23.43
2018-04-30T01:47:38.059Z,26.73
2018-04-30T01:50:06.457Z,21.73
2018-04-30T01:52:34.831Z,26.87
2018-04-30T01:55:03.216Z,20.60
2018-04-30T01:57:31.589Z,21.57
2018-04-30T02:00:00.038Z,25.80
2018-04-30T02:02:28.460Z,29.30
2018-04-30T02:04:56.821Z,21.80
2018-04-30T02:07:25.189Z,27.53
2018-04-30T02:09:53.556Z,27.33
2018-04-30T02:12:21.932Z,22.23
2018-04-30T02:14:50.317Z,23.33
2018-04-30T02:17:18.803Z,21.97
2018-04-30T02:19:47.157Z,19.90
2018-04-30T02:22:15.548Z,22.73
2018-04-30T02:24:43.934Z,18.73
2018-04-30T02:27:12.408Z,18.13
2018-04-30T02:29:40.865Z,22.30
2018-04-30T02:32:09.243Z,20.80
2018-04-30T02:34:37.638Z,21.13
2018-04-30T02:37:05.998Z,23.27
2018-04-30T02:39:34.369Z,23.27
2018-04-30T02:42:02.802Z,25.07
2018-04-30T02:44:31.205Z,25.47
2018-04-30T02:46:59.604Z,24.53
2018-04-30T02:49:27.983Z,32.00
2018-04-30T02:51:56.335Z,29.50
2018-04-30T02:54:24.703Z,23.03
2018-04-30T02:56:53.148Z,19.53
2018-04-30T02:59:21.546Z,20.53
2018-04-30T03:01:49.978Z,23.13
2018-04-30T03:04:18.380Z,25.97
2018-04-30T03:06:46.828Z,18.03
2018-04-30T03:09:15.227Z,22.80
2018-04-30T03:11:43.662Z,18.53
2018-04-30T03:14:12.089Z,18.60
2018-04-30T03:16:40.489Z,22.00
2018-04-30T03:19:08.902Z,20.07
2018-04-30T03:21:37.321Z,16.43
2018-04-30T03:24:05.820Z,22.80
2018-04-30T03:26:34.192Z,17.37
2018-04-30T03:29:02.705Z,18.60
2018-04-30T03:31:31.096Z,22.87
2018-04-30T03:33:59.538Z,20.43
2018-04-30T03:39:02.559Z,19.87
2018-04-30T03:41:37.664Z,19.30
2018-04-30T03:44:06.060Z,24.63
2018-04-30T03:46:35.450Z,24.33
2018-04-30T03:49:03.936Z,24.80
2018-04-30T03:51:32.367Z,21.40
2018-04-30T03:54:00.795Z,29.33
2018-04-30T03:56:29.230Z,23.00
2018-04-30T03:58:57.624Z,20.70
2018-04-30T04:01:39.939Z,16.30
2018-04-30T04:04:20.157Z,24.07
2018-04-30T04:06:52.404Z,18.00
2018-04-30T04:09:20.960Z,18.80
2018-04-30T04:11:49.788Z,16.60
2018-04-30T04:14:18.860Z,16.90
2018-04-30T04:16:47.593Z,17.30
2018-04-30T04:19:16.241Z,15.77
2018-04-30T04:21:44.691Z,21.43
2018-04-30T04:24:13.539Z,36.93
2018-04-30T04:26:43.132Z,16.23
2018-04-30T04:29:11.681Z,14.27
2018-04-30T04:31:40.097Z,14.70
2018-04-30T04:34:08.575Z,16.53
2018-04-30T04:36:37.051Z,18.50
2018-04-30T04:39:06.249Z,17.63
2018-04-30T04:41:34.640Z,11.43
2018-04-30T04:44:03.118Z,10.40
2018-04-30T04:46:31.695Z,6.00
2018-04-30T04:49:19.964Z,4.67
2018-04-30T04:52:00.514Z,4.07
2018-04-30T04:54:36.901Z,4.97
2018-04-30T04:57:07.182Z,5.10
2018-04-30T04:59:43.460Z,4.73
2018-04-30T05:02:24.176Z,4.03
2018-04-30T05:04:54.557Z,2.80
2018-04-30T05:07:22.967Z,2.93
2018-04-30T05:09:51.428Z,1.90
2018-04-30T05:12:19.901Z,3.33
2018-04-30T05:14:48.469Z,1.60
2018-04-30T05:17:16.894Z,3.40
2018-04-30T05:19:45.346Z,1.57
2018-04-30T05:22:13.823Z,2.13
2018-04-30T05:24:42.393Z,1.60
2018-04-30T05:27:10.965Z,1.10
2018-04-30T05:29:39.605Z,1.30
2018-04-30T05:32:09.018Z,3.03
2018-04-30T05:34:37.892Z,1.40
2018-04-30T05:37:07.155Z,3.23
2018-04-30T05:39:35.705Z,4.23
2018-04-30T05:42:04.149Z,5.23
2018-04-30T05:44:32.636Z,16.73
2018-04-30T05:47:01.267Z,6.50
2018-04-30T05:49:30.644Z,2.57
2018-04-30T05:51:59.063Z,10.07
2018-04-30T05:54:28.516Z,2.50
2018-04-30T05:56:57.755Z,10.90
2018-04-30T05:59:26.273Z,6.13
2018-04-30T06:01:54.679Z,6.77
2018-04-30T06:04:24.135Z,4.13
2018-04-30T06:06:52.600Z,8.93
2018-04-30T06:09:21.022Z,3.47
2018-04-30T06:11:49.387Z,2.03
2018-04-30T06:14:17.799Z,3.30
2018-04-30T06:16:46.258Z,2.73
2018-04-30T06:19:14.682Z,1.57
2018-04-30T06:21:43.074Z,2.60
2018-04-30T06:24:11.468Z,5.33
2018-04-30T06:26:40.009Z,13.83
2018-04-30T06:29:08.371Z,1.80
2018-04-30T06:31:36.782Z,3.73
2018-04-30T06:34:06.069Z,8.13
2018-04-30T06:36:34.659Z,1.17
2018-04-30T06:39:03.180Z,2.67
2018-04-30T06:41:31.616Z,6.27
2018-04-30T06:43:59.999Z,2.40
2018-04-30T06:46:28.435Z,6.10
2018-04-30T06:48:56.853Z,3.90
2018-04-30T06:51:25.271Z,9.07
2018-04-30T06:53:54.863Z,7.60
2018-04-30T06:56:23.736Z,2.77
2018-04-30T06:58:53.715Z,3.00
2018-04-30T07:01:23.653Z,1.50
2018-04-30T07:03:52.876Z,1.10
2018-04-30T07:12:29.680Z,6.80
2018-04-30T07:14:58.062Z,1.07
2018-04-30T07:17:26.494Z,4.10
2018-04-30T07:19:56.737Z,2.57
2018-04-30T07:22:25.173Z,8.70
2018-04-30T07:24:54.995Z,2.60
2018-04-30T07:27:23.700Z,1.90
2018-04-30T07:29:54.292Z,3.13
2018-04-30T07:32:23.029Z,2.27
2018-04-30T07:34:51.732Z,1.33
2018-04-30T07:37:24.126Z,1.40
2018-04-30T07:39:53.749Z,3.13
2018-04-30T07:42:24.903Z,2.60
2018-04-30T07:44:59.344Z,3.43
2018-04-30T07:47:27.773Z,1.43
2018-04-30T07:49:58.533Z,4.10
2018-04-30T07:52:29.537Z,5.50
2018-04-30T07:54:58.001Z,6.30
2018-04-30T07:57:26.376Z,6.77
2018-04-30T07:59:54.871Z,1.67
2018-04-30T08:02:23.229Z,2.10
2018-04-30T08:04:57.924Z,2.60
2018-04-30T08:07:27.183Z,6.23
2018-04-30T08:09:55.596Z,10.30
2018-04-30T08:12:25.598Z,2.40
2018-04-30T08:14:55.740Z,11.37
2018-04-30T08:17:24.124Z,2.70
2018-04-30T08:19:54.115Z,10.83
2018-04-30T08:22:25.189Z,13.43
2018-04-30T08:24:53.886Z,9.30
2018-04-30T08:27:24.190Z,2.77
2018-04-30T08:29:58.670Z,7.10
2018-04-30T08:32:27.148Z,1.97
2018-04-30T08:34:55.644Z,4.60
2018-04-30T08:37:28.348Z,4.33
2018-04-30T08:39:59.141Z,2.63
2018-04-30T08:42:27.553Z,1.00
2018-04-30T08:44:56.813Z,5.63
2018-04-30T08:47:25.201Z,3.73
2018-04-30T08:49:53.661Z,4.93
2018-04-30T08:52:28.411Z,2.40
2018-04-30T08:54:57.060Z,6.00
2018-04-30T08:57:25.459Z,10.43
2018-04-30T08:59:54.612Z,3.30
2018-04-30T09:02:24.192Z,3.77
2018-04-30T09:04:55.679Z,3.13
2018-04-30T09:07:25.543Z,10.70
2018-04-30T09:09:54.132Z,0.60
2018-04-30T09:12:26.219Z,4.30
2018-04-30T09:14:56.563Z,4.67
2018-04-30T09:17:26.557Z,2.50
2018-04-30T09:19:54.962Z,3.63
2018-04-30T09:22:25.774Z,7.40
2018-04-30T09:24:54.202Z,5.80
2018-04-30T09:27:24.645Z,9.00
2018-04-30T09:29:55.169Z,2.10
2018-04-30T09:32:25.262Z,9.20
2018-04-30T09:34:55.766Z,5.07
2018-04-30T09:37:28.697Z,1.30
2018-04-30T09:39:57.160Z,2.33
2018-04-30T09:42:25.883Z,2.00
2018-04-30T09:44:54.481Z,2.67
2018-04-30T09:47:24.263Z,1.33
2018-04-30T09:49:55.882Z,1.50
2018-04-30T09:52:24.775Z,1.17
2018-04-30T09:54:53.673Z,1.03
2018-04-30T09:57:23.257Z,1.90
2018-04-30T09:59:53.790Z,2.10
2018-04-30T10:02:24.780Z,1.60
2018-04-30T10:04:53.280Z,1.90
2018-04-30T10:07:23.356Z,1.37
2018-04-30T10:09:52.917Z,1.47
2018-04-30T10:12:22.777Z,2.23
2018-04-30T10:14:53.004Z,1.60
2018-04-30T10:17:22.817Z,1.53
2018-04-30T10:19:52.486Z,1.60
2018-04-30T10:22:22.229Z,1.80
2018-04-30T10:24:52.136Z,1.10
2018-04-30T10:27:22.148Z,1.10
2018-04-30T10:29:52.467Z,3.30
2018-04-30T10:32:22.637Z,1.43
2018-04-30T10:34:52.668Z,2.53
2018-04-30T10:37:23.557Z,1.40
2018-04-30T10:39:52.955Z,0.80
2018-04-30T10:42:22.787Z,0.77
2018-04-30T10:44:51.979Z,1.63
2018-04-30T10:47:21.437Z,1.27
2018-04-30T10:49:51.382Z,1.27
2018-04-30T10:52:22.878Z,2.83
2018-04-30T10:54:51.597Z,2.93
2018-04-30T10:57:25.793Z,5.90
2018-04-30T10:59:54.220Z,0.77
2018-04-30T11:02:24.856Z,1.00
2018-04-30T11:04:56.778Z,1.60
2018-04-30T11:07:25.223Z,8.60
2018-04-30T11:09:56.722Z,1.00
2018-04-30T11:12:29.020Z,7.70
2018-04-30T11:14:57.385Z,2.23
2018-04-30T11:17:27.140Z,2.53
2018-04-30T11:19:56.429Z,2.60
2018-04-30T11:22:24.878Z,5.23
2018-04-30T11:24:56.813Z,2.27
2018-04-30T11:27:29.287Z,1.63
2018-04-30T11:29:57.669Z,2.10
2018-04-30T11:32:28.706Z,1.10
2018-04-30T11:34:57.204Z,1.10
2018-04-30T11:37:29.401Z,4.07
2018-04-30T11:39:58.085Z,7.67
2018-04-30T11:42:27.344Z,18.10
2018-04-30T11:44:56.254Z,2.50
2018-04-30T11:47:25.261Z,13.37
2018-04-30T11:49:54.555Z,7.63
2018-04-30T11:52:24.328Z,5.50
2018-04-30T11:54:53.985Z,3.03
2018-04-30T11:57:24.334Z,5.20
2018-04-30T11:59:54.675Z,8.53
2018-04-30T12:02:24.889Z,3.63
2018-04-30T12:04:54.815Z,5.47
2018-04-30T12:07:24.681Z,1.53
2018-04-30T12:09:54.001Z,6.00
2018-04-30T12:12:24.470Z,15.40
2018-04-30T12:14:54.399Z,3.80
2018-04-30T12:17:23.846Z,8.17
2018-04-30T12:19:53.582Z,2.77
2018-04-30T12:22:23.349Z,2.40
2018-04-30T12:24:54.105Z,4.20
2018-04-30T12:27:22.908Z,6.27
2018-04-30T12:29:55.855Z,1.77
2018-04-30T12:32:25.184Z,1.97
2018-04-30T12:34:54.770Z,1.07
2018-04-30T12:37:24.481Z,3.33
2018-04-30T12:39:54.654Z,1.07
2018-04-30T12:42:23.748Z,0.80
2018-04-30T12:44:54.301Z,9.50
2018-04-30T12:47:24.312Z,0.80
2018-04-30T12:49:53.638Z,8.97
2018-04-30T12:52:23.924Z,3.67
2018-04-30T12:54:56.316Z,4.40
2018-04-30T12:57:24.982Z,1.03
2018-04-30T12:59:54.203Z,2.50
2018-04-30T13:02:24.866Z,4.80
2018-04-30T13:04:54.818Z,6.10
2018-04-30T13:07:25.647Z,13.03
2018-04-30T13:09:55.238Z,0.70
2018-04-30T13:12:25.304Z,1.27
2018-04-30T13:14:55.032Z,2.33
2018-04-30T13:17:26.018Z,3.53
2018-04-30T13:19:54.965Z,2.30
2018-04-30T13:22:24.645Z,3.20
2018-04-30T13:24:58.936Z,2.17
2018-04-30T13:27:27.367Z,4.83
2018-04-30T13:29:55.779Z,1.73
2018-04-30T13:32:26.617Z,2.27
2018-04-30T13:34:55.049Z,1.63
2018-04-30T13:37:28.357Z,1.17
2018-04-30T13:39:56.756Z,3.20
2018-04-30T13:42:29.296Z,0.80
2018-04-30T13:44:57.723Z,2.40
2018-04-30T13:47:26.257Z,3.90
2018-04-30T13:49:55.381Z,0.70
2018-04-30T13:52:25.281Z,3.53
2018-04-30T13:54:54.881Z,3.13
2018-04-30T13:57:24.247Z,2.40
2018-04-30T13:59:52.671Z,1.23
2018-04-30T14:02:27.895Z,8.77
2018-04-30T14:04:56.324Z,3.63
2018-04-30T14:07:28.788Z,1.07
2018-04-30T14:09:58.818Z,1.20
2018-04-30T14:12:27.485Z,0.80
2018-04-30T14:14:55.936Z,0.80
2018-04-30T14:17:27.804Z,1.47
2018-04-30T14:19:57.222Z,6.57
2018-04-30T14:22:25.664Z,3.27
2018-04-30T14:24:56.698Z,2.00
2018-04-30T14:27:25.716Z,2.20
2018-04-30T14:29:54.820Z,2.63
2018-04-30T14:32:25.749Z,1.57
2018-04-30T14:34:55.779Z,13.27
2018-04-30T14:37:27.226Z,1.37
2018-04-30T14:39:56.717Z,1.07
2018-04-30T14:42:27.229Z,2.20
2018-04-30T14:44:55.953Z,1.27
2018-04-30T14:47:26.281Z,0.60
2018-04-30T14:49:55.403Z,1.87
2018-04-30T14:52:24.786Z,7.20
2018-04-30T14:54:58.446Z,2.03
2018-04-30T14:57:28.361Z,3.90
2018-04-30T14:59:56.779Z,4.80
2018-04-30T15:02:26.173Z,3.27
2018-04-30T15:04:58.881Z,2.70
2018-04-30T15:07:27.825Z,1.90
2018-04-30T15:09:56.686Z,0.60
2018-04-30T15:12:25.269Z,1.67
2018-04-30T15:14:55.100Z,3.57
2018-04-30T15:17:25.297Z,2.40
2018-04-30T15:19:55.828Z,5.67
2018-04-30T15:22:25.049Z,1.27
2018-04-30T15:24:55.769Z,1.37
2018-04-30T15:27:26.880Z,5.27
2018-04-30T15:30:00.811Z,1.87
2018-04-30T15:32:29.523Z,2.97
2018-04-30T15:34:58.071Z,2.73
2018-04-30T15:37:26.963Z,1.90
2018-04-30T15:39:56.387Z,1.13
2018-04-30T15:42:26.840Z,2.30
2018-04-30T15:44:55.937Z,0.70
2018-04-30T15:47:26.777Z,1.23
2018-04-30T15:49:57.336Z,0.80
2018-04-30T15:52:26.802Z,6.00
2018-04-30T15:54:56.880Z,1.37
2018-04-30T15:57:26.837Z,2.53
2018-04-30T15:59:56.725Z,0.70
2018-04-30T16:02:25.148Z,6.10
2018-04-30T16:04:53.561Z,1.70
2018-04-30T16:07:23.831Z,2.73
2018-04-30T16:09:52.491Z,1.03
2018-04-30T16:12:26.311Z,1.90
2018-04-30T16:14:55.137Z,1.87
2018-04-30T16:17:24.571Z,1.43
2018-04-30T16:19:55.100Z,2.93
2018-04-30T16:22:24.775Z,1.00
2018-04-30T16:24:53.576Z,5.73
2018-04-30T16:27:23.815Z,2.10
2018-04-30T16:29:52.869Z,1.27
2018-04-30T16:32:22.137Z,2.17
2018-04-30T16:34:52.073Z,1.27
2018-04-30T16:37:22.832Z,1.73
2018-04-30T16:39:51.896Z,1.10
2018-04-30T16:42:29.379Z,1.87
2018-04-30T16:45:15.699Z,1.47
2018-04-30T16:47:50.420Z,1.13
2018-04-30T16:50:19.906Z,0.70
2018-04-30T16:52:48.890Z,1.57
2018-04-30T16:55:18.327Z,1.00
2018-04-30T16:57:48.471Z,0.63
2018-04-30T17:00:17.540Z,0.90
2018-04-30T17:02:46.367Z,0.60
2018-04-30T17:05:15.519Z,0.50
2018-04-30T17:07:45.259Z,2.37
2018-04-30T17:10:14.942Z,2.30
2018-04-30T17:12:45.060Z,1.37
2018-04-30T17:15:14.965Z,0.60
2018-04-30T17:17:46.370Z,1.10
2018-04-30T17:20:15.539Z,2.23
2018-04-30T17:22:44.826Z,0.73
2018-04-30T17:25:14.843Z,1.23
2018-04-30T17:27:47.542Z,1.20
2018-04-30T17:30:17.153Z,4.20
2018-04-30T17:32:47.264Z,2.10
2018-04-30T17:35:18.023Z,1.30
2018-04-30T17:37:47.694Z,2.20
2018-04-30T17:40:17.726Z,0.60
2018-04-30T17:42:49.791Z,2.30
2018-04-30T17:45:19.191Z,0.50
2018-04-30T17:47:48.858Z,1.03
2018-04-30T17:50:19.571Z,2.10
2018-04-30T17:52:49.758Z,0.50
2018-04-30T17:55:20.102Z,3.03
2018-04-30T17:57:52.503Z,1.57
2018-04-30T18:00:22.115Z,0.77
2018-04-30T18:02:51.073Z,1.13
2018-04-30T18:05:26.190Z,3.40
2018-04-30T18:07:54.588Z,0.53
2018-04-30T18:10:24.890Z,0.60
2018-04-30T18:12:53.354Z,0.50
2018-04-30T18:15:23.620Z,0.77
2018-04-30T18:20:28.429Z,0.87
2018-04-30T18:22:56.846Z,0.80
2018-04-30T18:25:27.867Z,0.50
2018-04-30T18:27:56.276Z,1.90
2018-04-30T18:30:25.530Z,0.60
2018-04-30T18:32:56.749Z,0.50
2018-04-30T18:35:26.694Z,0.50
2018-04-30T18:38:35.979Z,1.63
2018-04-30T18:41:11.518Z,2.33
2018-04-30T18:43:43.330Z,2.10
2018-04-30T18:46:15.735Z,0.60
2018-04-30T18:48:46.048Z,1.03
2018-04-30T18:51:15.716Z,0.63
2018-04-30T18:53:46.392Z,0.90
2018-04-30T18:56:16.091Z,0.50
2018-04-30T18:58:45.592Z,6.93
2018-04-30T19:01:15.041Z,4.20
2018-04-30T19:03:44.811Z,1.47
2018-04-30T19:06:15.334Z,1.13
2018-04-30T19:08:45.979Z,0.73
2018-04-30T19:11:21.656Z,2.20
2018-04-30T19:13:52.437Z,0.80
2018-04-30T19:16:21.877Z,1.03
2018-04-30T19:18:51.391Z,0.80
2018-04-30T19:21:20.726Z,0.67
2018-04-30T19:23:51.475Z,1.47
2018-04-30T19:26:25.230Z,1.73
2018-04-30T19:28:53.738Z,3.53
2018-04-30T19:31:22.880Z,0.80
2018-04-30T19:33:52.147Z,2.40
2018-04-30T19:36:22.820Z,2.87
2018-04-30T19:38:51.999Z,3.43
2018-04-30T19:41:21.548Z,0.90
2018-04-30T19:43:54.844Z,10.60
2018-04-30T19:46:24.142Z,1.60
2018-04-30T19:48:53.798Z,1.07
2018-04-30T19:51:22.996Z,0.70
2018-04-30T19:53:52.385Z,2.30
2018-04-30T19:56:21.589Z,1.37
2018-04-30T19:58:51.107Z,3.63
2018-04-30T20:01:20.244Z,1.57
2018-04-30T20:03:50.068Z,0.60
2018-04-30T20:06:19.425Z,0.97
2018-04-30T20:08:48.552Z,0.70
2018-04-30T20:11:17.971Z,1.00
2018-04-30T20:13:47.184Z,1.97
2018-04-30T20:16:17.270Z,0.70
2018-04-30T20:18:49.360Z,3.90
2018-04-30T20:21:19.651Z,2.00
2018-04-30T20:23:48.690Z,0.80
2018-04-30T20:26:17.972Z,1.13
2018-04-30T20:28:47.101Z,2.60
2018-04-30T20:31:18.247Z,2.70
2018-04-30T20:33:47.547Z,1.40
2018-04-30T20:36:17.055Z,1.60
2018-04-30T20:38:45.921Z,0.90
2018-04-30T20:41:15.840Z,0.80
2018-04-30T20:43:46.596Z,0.93
2018-04-30T20:46:16.697Z,1.00
2018-04-30T20:48:55.375Z,4.60
2018-04-30T20:51:23.799Z,0.80
2018-04-30T20:53:53.331Z,1.20
2018-04-30T20:56:21.836Z,0.87
2018-04-30T20:58:51.335Z,1.20
2018-04-30T21:01:22.950Z,3.57
2018-04-30T21:03:51.630Z,0.80
2018-04-30T21:06:20.986Z,1.37
2018-04-30T21:09:01.159Z,0.90
2018-04-30T21:11:29.559Z,1.10
2018-04-30T21:13:57.937Z,1.40
2018-04-30T21:16:27.029Z,0.73
2018-04-30T21:18:55.451Z,2.40
2018-04-30T21:21:26.079Z,2.93
2018-04-30T21:23:54.497Z,0.60
2018-04-30T21:26:24.453Z,2.83
2018-04-30T21:28:53.408Z,4.20
2018-04-30T21:31:25.266Z,2.93
2018-04-30T21:33:53.766Z,0.60
2018-04-30T21:36:22.181Z,1.80
2018-04-30T21:38:52.424Z,2.30
2018-04-30T21:41:22.565Z,1.33
2018-04-30T21:43:53.816Z,2.77
2018-04-30T21:46:22.492Z,0.80
2018-04-30T21:48:55.037Z,0.70
2018-04-30T21:51:23.506Z,1.57
2018-04-30T21:53:57.751Z,3.97
2018-04-30T21:56:26.124Z,0.60
2018-04-30T21:58:55.864Z,0.57
2018-04-30T22:01:24.178Z,0.93
2018-04-30T22:03:52.617Z,0.60
2018-04-30T22:06:24.159Z,0.77
2018-04-30T22:08:52.777Z,6.10
2018-04-30T22:11:24.040Z,5.30
2018-04-30T22:13:52.446Z,1.47
2018-04-30T22:16:23.322Z,3.90
2018-04-30T22:18:52.155Z,8.47
2018-04-30T22:21:22.374Z,4.20
2018-04-30T22:23:52.860Z,2.93
2018-04-30T22:26:25.233Z,1.93
2018-04-30T22:28:53.610Z,2.20
2018-04-30T22:31:23.800Z,0.50
2018-04-30T22:33:54.424Z,5.40
2018-04-30T22:36:22.770Z,4.37
2018-04-30T22:38:53.815Z,6.33
2018-04-30T22:41:22.316Z,0.50
2018-04-30T22:43:53.147Z,0.50
2018-04-30T22:46:21.865Z,0.63
2018-04-30T22:48:55.949Z,3.33
2018-04-30T22:51:24.366Z,1.10
2018-04-30T22:53:56.445Z,2.63
2018-04-30T22:56:24.815Z,0.60
2018-04-30T22:59:22.479Z,4.17
2018-04-30T23:45:22.236Z,1.90
2018-04-30T23:47:52.106Z,1.10
2018-04-30T23:50:23.344Z,1.00
2018-04-30T23:52:52.681Z,1.20
2018-04-30T23:55:22.672Z,1.93
2018-04-30T23:57:51.422Z,2.47
